createdAt,value
2023-05-09T00:00:50.071Z,15.70
2023-05-09T00:03:16.939Z,14.33
2023-05-09T00:05:43.923Z,14.57
2023-05-09T00:08:11.095Z,14.70
2023-05-09T00:10:37.938Z,13.83
2023-05-09T00:13:04.809Z,15.10
2023-05-09T00:15:31.955Z,14.37
2023-05-09T00:17:59.453Z,14.80
2023-05-09T00:20:26.448Z,13.77
2023-05-09T00:22:53.297Z,13.60
2023-05-09T00:25:20.342Z,15.03
2023-05-09T00:27:47.243Z,13.83
2023-05-09T00:30:14.216Z,14.00
2023-05-09T00:32:41.653Z,13.50
2023-05-09T00:35:10.202Z,13.77
2023-05-09T00:37:37.223Z,13.67
2023-05-09T00:40:06.258Z,13.97
2023-05-09T00:42:33.539Z,12.37
2023-05-09T00:45:00.514Z,13.27
2023-05-09T00:47:29.027Z,12.77
2023-05-09T00:49:58.006Z,12.90
2023-05-09T00:52:26.232Z,12.47
2023-05-09T00:54:54.347Z,11.97
2023-05-09T00:57:22.198Z,12.07
2023-05-09T00:59:50.133Z,11.23
2023-05-09T01:02:18.312Z,11.40
2023-05-09T01:04:48.518Z,11.00
2023-05-09T01:07:49.233Z,10.53
2023-05-09T01:10:35.774Z,10.60
2023-05-09T01:13:32.255Z,10.83
2023-05-09T01:16:18.325Z,10.50
2023-05-09T01:18:57.339Z,10.83
2023-05-09T01:21:30.048Z,10.57
2023-05-09T01:24:32.638Z,10.07
2023-05-09T01:27:33.229Z,9.80
2023-05-09T01:30:04.119Z,10.67
2023-05-09T01:32:32.548Z,9.57
2023-05-09T01:35:06.022Z,9.27
2023-05-09T01:37:36.094Z,8.87
2023-05-09T01:40:15.251Z,9.70
2023-05-09T01:42:47.733Z,8.10
2023-05-09T01:45:15.921Z,9.40
2023-05-09T01:47:43.925Z,8.80
2023-05-09T01:50:12.710Z,8.97
2023-05-09T01:52:41.298Z,9.00
2023-05-09T01:55:10.668Z,8.90
2023-05-09T01:57:38.557Z,8.80
2023-05-09T02:00:08.061Z,8.37
2023-05-09T02:02:36.053Z,8.90
2023-05-09T02:05:03.471Z,9.20
2023-05-09T02:07:31.216Z,8.57
2023-05-09T02:09:59.849Z,8.63
2023-05-09T02:12:27.088Z,8.53
2023-05-09T02:14:54.034Z,8.73
2023-05-09T02:17:21.594Z,8.83
2023-05-09T02:19:48.470Z,9.03
2023-05-09T02:22:15.773Z,8.27
2023-05-09T02:24:45.149Z,8.37
2023-05-09T02:27:12.952Z,8.00
2023-05-09T02:29:46.114Z,7.77
2023-05-09T02:32:17.470Z,8.03
2023-05-09T02:34:46.141Z,8.50
2023-05-09T02:37:13.996Z,8.40
2023-05-09T02:39:41.096Z,7.63
2023-05-09T02:42:19.478Z,8.70
2023-05-09T02:44:46.371Z,8.47
2023-05-09T02:47:13.186Z,8.80
2023-05-09T02:49:39.979Z,8.80
2023-05-09T02:52:06.845Z,8.33
2023-05-09T02:54:33.713Z,8.37
2023-05-09T02:57:00.630Z,9.10
2023-05-09T02:59:27.546Z,8.77
2023-05-09T03:01:54.651Z,9.00
2023-05-09T03:04:21.611Z,9.20
2023-05-09T03:06:48.453Z,8.83
2023-05-09T03:09:15.560Z,8.87
2023-05-09T03:11:42.363Z,9.23
2023-05-09T03:14:10.678Z,9.23
2023-05-09T03:16:37.708Z,8.90
2023-05-09T03:19:04.515Z,8.70
2023-05-09T03:21:32.036Z,9.50
2023-05-09T03:23:59.168Z,9.47
2023-05-09T03:26:26.546Z,8.97
2023-05-09T03:28:53.419Z,9.27
2023-05-09T03:31:20.350Z,9.10
2023-05-09T03:33:47.427Z,9.10
2023-05-09T03:36:14.718Z,9.10
2023-05-09T03:38:41.515Z,8.90
2023-05-09T03:41:08.310Z,9.53
2023-05-09T03:43:35.133Z,9.40
2023-05-09T03:46:02.002Z,9.50
2023-05-09T03:48:28.780Z,9.03
2023-05-09T03:50:55.725Z,8.63
2023-05-09T03:53:23.200Z,8.97
2023-05-09T03:55:50.296Z,8.43
2023-05-09T03:58:19.220Z,9.10
2023-05-09T04:00:46.269Z,9.30
2023-05-09T04:03:13.259Z,9.20
2023-05-09T04:05:40.532Z,9.17
2023-05-09T04:08:07.458Z,8.90
2023-05-09T04:10:34.295Z,8.70
2023-05-09T04:13:01.236Z,9.23
2023-05-09T04:15:28.115Z,9.43
2023-05-09T04:17:54.954Z,8.80
2023-05-09T04:20:21.886Z,8.80
2023-05-09T04:22:48.660Z,9.07
2023-05-09T04:25:17.071Z,9.47
2023-05-09T04:27:44.030Z,8.70
2023-05-09T04:30:12.216Z,8.37
2023-05-09T04:32:39.154Z,9.10
2023-05-09T04:35:08.122Z,8.30
2023-05-09T04:37:35.075Z,8.80
2023-05-09T04:40:02.148Z,9.23
2023-05-09T04:42:28.995Z,8.03
2023-05-09T04:44:55.863Z,7.80
2023-05-09T04:47:22.715Z,8.70
2023-05-09T04:49:49.581Z,7.97
2023-05-09T04:52:16.753Z,8.07
2023-05-09T04:54:43.600Z,7.63
2023-05-09T04:57:17.877Z,8.27
2023-05-09T04:59:46.073Z,8.40
2023-05-09T05:02:12.957Z,7.70
2023-05-09T05:04:39.912Z,7.97
2023-05-09T05:07:06.825Z,8.53
2023-05-09T05:09:33.670Z,8.07
2023-05-09T05:12:03.028Z,7.50
2023-05-09T05:14:31.266Z,7.80
2023-05-09T05:16:58.725Z,7.83
2023-05-09T05:19:25.692Z,8.07
2023-05-09T05:21:52.576Z,7.50
2023-05-09T05:24:19.408Z,7.67
2023-05-09T05:26:46.358Z,8.47
2023-05-09T05:29:13.138Z,7.23
2023-05-09T05:31:40.057Z,7.80
2023-05-09T05:34:06.956Z,7.97
2023-05-09T05:36:33.741Z,7.30
2023-05-09T05:39:00.590Z,7.03
2023-05-09T05:41:27.529Z,7.17
2023-05-09T05:43:54.673Z,7.43
2023-05-09T05:46:21.625Z,7.53
2023-05-09T05:48:48.500Z,7.40
2023-05-09T05:51:15.349Z,6.57
2023-05-09T05:53:42.725Z,7.23
2023-05-09T05:56:09.568Z,6.60
2023-05-09T05:58:36.372Z,7.60
2023-05-09T06:01:03.242Z,7.13
2023-05-09T06:03:30.848Z,8.00
2023-05-09T06:05:57.930Z,8.13
2023-05-09T06:08:24.748Z,7.50
2023-05-09T06:10:52.703Z,7.07
2023-05-09T06:13:19.680Z,7.23
2023-05-09T06:15:46.732Z,6.43
2023-05-09T06:18:13.731Z,7.13
2023-05-09T06:20:40.820Z,7.53
2023-05-09T06:23:07.724Z,6.97
2023-05-09T06:25:34.536Z,7.10
2023-05-09T06:28:01.426Z,7.47
2023-05-09T06:30:28.341Z,6.93
2023-05-09T06:32:55.708Z,6.80
2023-05-09T06:35:22.576Z,7.20
2023-05-09T06:37:49.960Z,6.47
2023-05-09T06:40:17.256Z,6.97
2023-05-09T06:42:44.747Z,6.73
2023-05-09T06:45:12.053Z,6.57
2023-05-09T06:47:39.003Z,7.23
2023-05-09T06:50:06.801Z,7.00
2023-05-09T06:52:33.618Z,7.27
2023-05-09T06:55:00.499Z,7.23
2023-05-09T06:57:27.289Z,6.93
2023-05-09T06:59:54.151Z,7.13
2023-05-09T07:02:20.953Z,6.63
2023-05-09T07:04:47.892Z,6.40
2023-05-09T07:07:14.687Z,6.90
2023-05-09T07:09:41.524Z,6.37
2023-05-09T07:12:08.649Z,6.93
2023-05-09T07:14:35.720Z,6.83
2023-05-09T07:17:18.243Z,6.70
2023-05-09T07:19:48.508Z,6.97
2023-05-09T07:22:15.413Z,6.23
2023-05-09T07:24:44.190Z,6.47
2023-05-09T07:27:11.012Z,6.90
2023-05-09T07:29:37.936Z,6.27
2023-05-09T07:32:05.028Z,6.87
2023-05-09T07:34:31.856Z,6.53
2023-05-09T07:36:58.753Z,7.57
2023-05-09T07:39:25.679Z,6.87
2023-05-09T07:41:52.526Z,7.33
2023-05-09T07:44:19.352Z,7.10
2023-05-09T07:46:46.127Z,7.20
2023-05-09T07:49:12.961Z,7.67
2023-05-09T07:51:39.762Z,6.83
2023-05-09T07:54:07.025Z,7.77
2023-05-09T07:56:33.853Z,7.20
2023-05-09T07:59:00.833Z,7.27
2023-05-09T08:01:27.695Z,7.23
2023-05-09T08:03:54.774Z,7.53
2023-05-09T08:06:21.666Z,7.23
2023-05-09T08:08:48.560Z,7.27
2023-05-09T08:11:15.469Z,7.33
2023-05-09T08:13:42.259Z,8.10
2023-05-09T08:16:09.194Z,8.07
2023-05-09T08:18:36.062Z,7.67
2023-05-09T08:21:02.971Z,8.33
2023-05-09T08:23:30.365Z,7.90
2023-05-09T08:25:57.343Z,8.03
2023-05-09T08:28:24.377Z,7.83
2023-05-09T08:30:52.155Z,8.20
2023-05-09T08:33:19.215Z,7.93
2023-05-09T08:35:51.047Z,7.70
2023-05-09T08:38:17.917Z,8.23
2023-05-09T08:40:44.772Z,7.70
2023-05-09T08:43:13.311Z,7.53
2023-05-09T08:45:48.465Z,8.43
2023-05-09T08:48:18.875Z,7.73
2023-05-09T08:50:45.783Z,8.57
2023-05-09T08:53:13.790Z,8.67
2023-05-09T08:55:41.664Z,7.83
2023-05-09T08:58:09.871Z,8.87
2023-05-09T09:00:40.517Z,8.60
2023-05-09T09:03:07.693Z,9.00
2023-05-09T09:05:41.716Z,8.57
2023-05-09T09:08:10.222Z,8.37
2023-05-09T09:10:47.233Z,9.03
2023-05-09T09:13:15.489Z,9.30
2023-05-09T09:15:46.356Z,8.17
2023-05-09T09:18:22.332Z,9.10
2023-05-09T09:20:57.850Z,8.00
2023-05-09T09:23:26.522Z,8.63
2023-05-09T09:26:06.775Z,8.17
2023-05-09T09:28:34.022Z,8.13
2023-05-09T09:31:01.322Z,8.53
2023-05-09T09:33:29.725Z,8.90
2023-05-09T09:35:57.395Z,7.60
2023-05-09T09:38:25.157Z,7.47
2023-05-09T09:40:51.955Z,8.50
2023-05-09T09:43:19.591Z,7.40
2023-05-09T09:45:51.443Z,7.53
2023-05-09T09:48:18.457Z,7.93
2023-05-09T09:50:48.260Z,7.43
2023-05-09T09:53:15.133Z,8.47
2023-05-09T09:55:56.394Z,8.20
2023-05-09T09:58:25.143Z,8.13
2023-05-09T10:01:13.979Z,7.37
2023-05-09T10:03:45.909Z,7.30
2023-05-09T10:06:17.386Z,8.07
2023-05-09T10:08:49.366Z,7.50
2023-05-09T10:11:16.422Z,5.63
2023-05-09T10:13:44.585Z,7.27
2023-05-09T10:16:12.989Z,6.47
2023-05-09T10:18:42.762Z,5.00
2023-05-09T10:21:14.725Z,6.07
2023-05-09T10:23:47.157Z,6.07
2023-05-09T10:26:27.257Z,6.30
2023-05-09T10:28:57.225Z,7.87
2023-05-09T10:31:29.011Z,7.73
2023-05-09T10:33:56.422Z,6.30
2023-05-09T10:36:24.012Z,5.77
2023-05-09T10:38:55.493Z,5.97
2023-05-09T10:41:23.668Z,6.53
2023-05-09T10:43:51.086Z,5.87
2023-05-09T10:46:18.542Z,7.40
2023-05-09T10:48:46.420Z,6.60
2023-05-09T10:51:13.881Z,6.80
2023-05-09T10:53:51.469Z,6.97
2023-05-09T10:56:33.204Z,6.90
2023-05-09T10:59:00.701Z,6.70
2023-05-09T11:01:39.416Z,7.90
2023-05-09T11:04:11.044Z,7.80
2023-05-09T11:06:49.392Z,7.47
2023-05-09T11:09:42.756Z,7.20
2023-05-09T11:12:14.872Z,7.97
2023-05-09T11:14:51.655Z,6.87
2023-05-09T11:17:21.747Z,7.37
2023-05-09T11:19:49.122Z,6.67
2023-05-09T11:22:24.598Z,7.00
2023-05-09T11:25:01.367Z,6.70
2023-05-09T11:27:29.418Z,6.90
2023-05-09T11:29:59.302Z,6.07
2023-05-09T11:32:40.297Z,7.17
2023-05-09T11:35:15.665Z,6.43
2023-05-09T11:38:00.138Z,7.97
2023-05-09T11:40:28.726Z,7.33
2023-05-09T11:42:58.848Z,7.53
2023-05-09T11:45:32.281Z,7.63
2023-05-09T11:48:00.486Z,7.67
2023-05-09T11:50:27.420Z,7.57
2023-05-09T11:52:54.736Z,7.57
2023-05-09T11:55:23.027Z,7.10
2023-05-09T11:57:53.662Z,7.00
2023-05-09T12:00:23.572Z,6.23
2023-05-09T12:02:51.720Z,7.93
2023-05-09T12:05:21.704Z,6.80
2023-05-09T12:07:48.993Z,5.73
2023-05-09T12:10:19.783Z,5.73
2023-05-09T12:12:49.413Z,7.13
2023-05-09T12:15:17.508Z,7.30
2023-05-09T12:17:47.273Z,7.20
2023-05-09T12:20:14.611Z,6.67
2023-05-09T12:22:43.853Z,7.97
2023-05-09T12:25:12.298Z,8.07
2023-05-09T12:27:42.184Z,7.30
2023-05-09T12:30:15.893Z,7.13
2023-05-09T12:32:43.610Z,5.87
2023-05-09T12:35:11.152Z,6.83
2023-05-09T12:37:38.828Z,7.77
2023-05-09T12:40:12.529Z,7.40
2023-05-09T12:42:43.613Z,6.37
2023-05-09T12:45:11.382Z,7.23
2023-05-09T12:47:47.322Z,5.97
2023-05-09T12:50:14.329Z,5.03
2023-05-09T12:53:02.089Z,6.47
2023-05-09T12:55:31.147Z,6.07
2023-05-09T12:58:03.423Z,5.80
2023-05-09T13:00:45.026Z,5.60
2023-05-09T13:03:27.337Z,5.33
2023-05-09T13:06:01.172Z,6.63
2023-05-09T13:08:29.133Z,6.13
2023-05-09T13:11:08.000Z,5.47
2023-05-09T13:13:42.527Z,5.73
2023-05-09T13:16:11.142Z,6.23
2023-05-09T13:18:39.595Z,5.17
2023-05-09T13:21:06.664Z,4.93
2023-05-09T13:23:33.495Z,4.77
2023-05-09T13:26:00.418Z,5.73
2023-05-09T13:28:27.233Z,4.10
2023-05-09T13:30:54.104Z,4.40
2023-05-09T13:35:51.549Z,6.10
2023-05-09T13:38:18.381Z,5.33
2023-05-09T13:40:45.222Z,5.50
2023-05-09T13:43:12.027Z,4.90
2023-05-09T13:45:39.146Z,5.70
2023-05-09T13:48:06.304Z,5.80
2023-05-09T13:50:33.852Z,5.67
2023-05-09T13:53:00.739Z,5.10
2023-05-09T13:55:27.712Z,5.73
2023-05-09T13:57:54.850Z,5.67
2023-05-09T14:00:22.338Z,4.60
2023-05-09T14:02:49.283Z,5.80
2023-05-09T14:05:16.902Z,5.20
2023-05-09T14:07:45.017Z,5.17
2023-05-09T14:10:12.958Z,4.70
2023-05-09T14:12:40.733Z,5.07
2023-05-09T14:15:08.622Z,4.90
2023-05-09T14:17:35.758Z,6.00
2023-05-09T14:20:02.687Z,4.53
2023-05-09T14:22:29.505Z,4.37
2023-05-09T14:24:58.992Z,4.97
2023-05-09T14:27:26.275Z,4.70
2023-05-09T14:29:53.270Z,5.37
2023-05-09T14:32:20.946Z,5.20
2023-05-09T14:34:51.594Z,4.80
2023-05-09T14:37:18.380Z,5.20
2023-05-09T14:39:45.476Z,4.70
2023-05-09T14:42:14.196Z,5.67
2023-05-09T14:44:41.946Z,5.70
2023-05-09T14:47:09.985Z,5.70
2023-05-09T14:49:37.824Z,6.83
2023-05-09T14:52:04.778Z,6.10
2023-05-09T14:54:31.681Z,7.27
2023-05-09T14:56:59.512Z,6.40
2023-05-09T14:59:26.361Z,6.37
2023-05-09T15:01:53.620Z,5.67
2023-05-09T15:04:20.549Z,6.47
2023-05-09T15:06:47.435Z,6.30
2023-05-09T15:09:15.476Z,6.10
2023-05-09T15:11:48.272Z,5.77
2023-05-09T15:14:16.797Z,6.00
2023-05-09T15:16:44.141Z,6.17
2023-05-09T15:19:11.132Z,6.77
2023-05-09T15:21:38.040Z,5.87
2023-05-09T15:24:05.495Z,6.70
2023-05-09T15:26:32.578Z,6.30
2023-05-09T15:28:59.588Z,6.20
2023-05-09T15:31:26.654Z,5.50
2023-05-09T15:33:53.632Z,6.57
2023-05-09T15:36:20.444Z,6.70
2023-05-09T15:38:49.358Z,6.60
2023-05-09T15:41:16.701Z,7.47
2023-05-09T15:43:43.540Z,7.03
2023-05-09T15:46:10.524Z,8.23
2023-05-09T15:48:37.493Z,8.57
2023-05-09T15:51:04.494Z,8.23
2023-05-09T15:53:31.809Z,7.63
2023-05-09T15:55:58.674Z,8.90
2023-05-09T15:58:25.644Z,8.40
2023-05-09T16:00:52.603Z,9.53
2023-05-09T16:03:19.879Z,9.10
2023-05-09T16:05:46.948Z,8.30
2023-05-09T16:08:14.459Z,9.30
2023-05-09T16:10:41.308Z,8.80
2023-05-09T16:13:08.292Z,8.43
2023-05-09T16:15:35.344Z,8.70
2023-05-09T16:18:02.221Z,8.60
2023-05-09T16:20:29.058Z,8.00
2023-05-09T16:22:55.959Z,8.70
2023-05-09T16:25:22.992Z,8.03
2023-05-09T16:27:50.229Z,8.50
2023-05-09T16:30:17.713Z,8.30
2023-05-09T16:32:45.089Z,9.23
2023-05-09T16:35:12.470Z,8.53
2023-05-09T16:37:39.650Z,8.23
2023-05-09T16:40:07.146Z,7.70
2023-05-09T16:42:34.069Z,7.67
2023-05-09T16:45:00.943Z,7.57
2023-05-09T16:47:27.805Z,8.60
2023-05-09T16:49:54.591Z,9.00
2023-05-09T16:52:23.054Z,8.20
2023-05-09T16:54:50.533Z,8.10
2023-05-09T16:57:17.341Z,7.87
2023-05-09T16:59:44.126Z,7.40
2023-05-09T17:02:11.059Z,7.67
2023-05-09T17:04:38.088Z,7.63
2023-05-09T17:07:04.996Z,7.40
2023-05-09T17:09:32.365Z,7.20
2023-05-09T17:12:00.538Z,7.93
2023-05-09T17:14:27.503Z,7.13
2023-05-09T17:16:54.566Z,7.40
2023-05-09T17:19:23.456Z,7.03
2023-05-09T17:21:50.632Z,6.90
2023-05-09T17:24:17.982Z,6.93
2023-05-09T17:26:44.890Z,6.83
2023-05-09T17:29:11.738Z,6.60
2023-05-09T17:31:38.571Z,6.93
2023-05-09T17:34:05.723Z,7.07
2023-05-09T17:36:33.644Z,7.43
2023-05-09T17:39:00.835Z,7.07
2023-05-09T17:41:27.890Z,6.77
2023-05-09T17:43:57.274Z,6.87
2023-05-09T17:46:24.846Z,6.97
2023-05-09T17:48:51.860Z,6.90
2023-05-09T17:51:18.867Z,7.37
2023-05-09T17:53:46.716Z,6.37
2023-05-09T17:56:13.611Z,6.43
2023-05-09T17:58:40.511Z,6.30
2023-05-09T18:01:07.595Z,6.90
2023-05-09T18:03:34.645Z,6.60
2023-05-09T18:06:01.787Z,5.90
2023-05-09T18:08:29.792Z,6.50
2023-05-09T18:10:57.247Z,6.90
2023-05-09T18:13:24.228Z,6.90
2023-05-09T18:15:51.385Z,6.97
2023-05-09T18:18:18.462Z,6.90
2023-05-09T18:20:47.026Z,6.70
2023-05-09T18:23:14.796Z,6.33
2023-05-09T18:25:42.078Z,6.37
2023-05-09T18:28:09.379Z,6.43
2023-05-09T18:30:36.480Z,6.17
2023-05-09T18:33:03.702Z,6.27
2023-05-09T18:35:31.587Z,6.20
2023-05-09T18:37:58.413Z,6.23
2023-05-09T18:40:25.204Z,6.10
2023-05-09T18:42:52.128Z,5.30
2023-05-09T18:45:18.945Z,6.17
2023-05-09T18:47:45.811Z,6.37
2023-05-09T18:50:13.943Z,6.37
2023-05-09T18:52:40.930Z,6.93
2023-05-09T18:55:08.326Z,5.53
2023-05-09T18:57:35.181Z,6.23
2023-05-09T19:00:02.093Z,6.40
2023-05-09T19:02:30.096Z,5.90
2023-05-09T19:04:57.082Z,5.90
2023-05-09T19:07:24.196Z,5.90
2023-05-09T19:09:51.314Z,6.50
2023-05-09T19:12:19.183Z,6.07
2023-05-09T19:14:46.091Z,6.10
2023-05-09T19:17:12.988Z,5.37
2023-05-09T19:19:39.905Z,5.63
2023-05-09T19:22:07.125Z,6.60
2023-05-09T19:24:34.421Z,5.73
2023-05-09T19:27:01.488Z,5.77
2023-05-09T19:29:28.581Z,5.70
2023-05-09T19:31:55.865Z,5.17
2023-05-09T19:34:22.824Z,5.93
2023-05-09T19:36:49.844Z,5.50
2023-05-09T19:39:17.236Z,5.77
2023-05-09T19:41:44.133Z,6.10
2023-05-09T19:44:11.468Z,5.87
2023-05-09T19:46:42.861Z,5.23
2023-05-09T19:51:43.244Z,5.57
2023-05-09T19:54:10.062Z,5.73
2023-05-09T19:56:36.883Z,5.50
2023-05-09T19:59:04.482Z,5.60
2023-05-09T20:01:31.472Z,5.30
2023-05-09T20:03:58.445Z,5.40
2023-05-09T20:06:25.756Z,5.33
2023-05-09T20:08:52.631Z,5.43
2023-05-09T20:11:19.538Z,5.10
2023-05-09T20:13:46.390Z,5.30
2023-05-09T20:16:13.438Z,5.10
2023-05-09T20:18:40.364Z,5.27
2023-05-09T20:21:09.658Z,5.53
2023-05-09T20:23:37.076Z,5.30
2023-05-09T20:26:04.056Z,4.73
2023-05-09T20:28:31.097Z,5.10
2023-05-09T20:30:57.975Z,4.97
2023-05-09T20:33:24.868Z,4.93
2023-05-09T20:35:51.789Z,5.50
2023-05-09T20:38:19.160Z,4.97
2023-05-09T20:40:45.984Z,5.17
2023-05-09T20:43:12.854Z,5.00
2023-05-09T20:45:39.742Z,5.27
2023-05-09T20:48:06.834Z,5.47
2023-05-09T20:50:33.669Z,4.67
2023-05-09T20:53:00.628Z,5.03
2023-05-09T20:55:27.555Z,5.00
2023-05-09T20:57:54.477Z,4.90
2023-05-09T21:00:21.343Z,5.63
2023-05-09T21:02:48.345Z,5.00
2023-05-09T21:05:15.315Z,4.70
2023-05-09T21:07:42.165Z,4.70
2023-05-09T21:10:10.436Z,5.43
2023-05-09T21:12:37.475Z,5.30
2023-05-09T21:15:05.079Z,5.53
2023-05-09T21:17:32.084Z,5.80
2023-05-09T21:19:58.942Z,5.40
2023-05-09T21:22:25.717Z,5.50
2023-05-09T21:24:52.952Z,6.30
2023-05-09T21:27:19.805Z,5.73
2023-05-09T21:29:49.162Z,6.03
2023-05-09T21:32:16.946Z,6.67
2023-05-09T21:34:43.867Z,6.07
2023-05-09T21:37:10.730Z,6.30
2023-05-09T21:39:37.573Z,5.80
2023-05-09T21:42:04.432Z,5.63
2023-05-09T21:44:31.396Z,5.67
2023-05-09T21:46:58.471Z,6.20
2023-05-09T21:49:28.711Z,5.63
2023-05-09T21:51:55.775Z,6.30
2023-05-09T21:54:23.225Z,6.27
2023-05-09T21:56:50.093Z,5.70
2023-05-09T21:59:20.603Z,5.50
2023-05-09T22:01:48.534Z,6.97
2023-05-09T22:04:15.898Z,6.07
2023-05-09T22:06:43.027Z,7.23
2023-05-09T22:09:10.563Z,6.60
2023-05-09T22:11:37.798Z,6.70
2023-05-09T22:14:04.729Z,7.30
2023-05-09T22:16:31.629Z,6.60
2023-05-09T22:18:58.462Z,6.70
2023-05-09T22:21:25.487Z,7.37
2023-05-09T22:23:52.467Z,6.47
2023-05-09T22:26:19.396Z,5.60
2023-05-09T22:28:46.188Z,3.70
2023-05-09T22:31:13.043Z,3.73
2023-05-09T22:33:40.089Z,3.57
2023-05-09T22:36:07.403Z,2.73
2023-05-09T22:38:34.352Z,2.80
2023-05-09T22:41:01.134Z,2.17
2023-05-09T22:43:33.877Z,2.23
2023-05-09T22:46:06.008Z,2.03
2023-05-09T22:48:32.909Z,2.07
2023-05-09T22:50:59.745Z,1.87
2023-05-09T22:53:26.611Z,1.90
2023-05-09T22:55:54.667Z,1.87
2023-05-09T22:58:22.624Z,2.03
2023-05-09T23:00:50.020Z,1.87
2023-05-09T23:03:17.481Z,1.60
2023-05-09T23:05:44.409Z,1.83
2023-05-09T23:08:11.371Z,1.90
2023-05-09T23:10:38.184Z,1.80
2023-05-09T23:13:05.115Z,1.67
2023-05-09T23:15:32.070Z,1.43
2023-05-09T23:17:58.944Z,1.30
2023-05-09T23:20:26.198Z,1.30
2023-05-09T23:22:52.988Z,1.20
2023-05-09T23:25:19.915Z,1.07
2023-05-09T23:27:47.040Z,1.07
2023-05-09T23:30:14.258Z,1.00
2023-05-09T23:32:41.296Z,1.00
2023-05-09T23:35:08.517Z,0.97
2023-05-09T23:37:35.338Z,1.30
2023-05-09T23:40:03.795Z,1.17
2023-05-09T23:42:30.856Z,1.27
2023-05-09T23:44:57.777Z,1.30
2023-05-09T23:47:24.659Z,1.00
2023-05-09T23:49:51.486Z,1.10
2023-05-09T23:52:18.333Z,1.10
2023-05-09T23:54:45.145Z,1.40
2023-05-09T23:57:12.013Z,1.30
2023-05-09T23:59:38.832Z,1.40
